^^
Datos históricos de la estación: Murcia-Puente Tocinos
Diario Informe para Septiembre 26, 2021 Unidades:  Ingés    Métrico   Ambas
Diario Semanal Mensual Anual
  Máxima: Mínima: Promedio:
Temperatura: 86.5 °F 71.8 °F 77.9 °F
Punto de rocio: 70 °F 52.7 °F 58.8 °F
Humedad: 85% 33% 54%
Velocidad viento: 8.1mph 1.4mph 4.7mph
Racha viento: 15mph - -
Viento- - SSO
Presión: 30.1 in 30 in -
Precipitación: 0 in    
 
 
Tabla de datos para Septiembre 26, 2021
Hora Temperatura Punto de rocio Presión Viento Velocidad viento Racha viento Humedad Intensidad lluvia(por hora) Nubes
00:04 75.7 °F 69.8 °F 30 in ESE 3.1 mph 3.6 mph 82% 0 in
00:09 75.6 °F 69.8 °F 30 in ESE 2.7 mph 2.4 mph 82% 0 in
00:14 75.6 °F 69.8 °F 30 in ESE 1.8 mph 2.9 mph 82% 0 in
00:19 75.7 °F 69.8 °F 30 in SE 1.7 mph 2.9 mph 82% 0 in
00:24 75.7 °F 70 °F 30 in SSE 1.4 mph 5.9 mph 82% 0 in
00:29 75.6 °F 69.8 °F 30 in NO 1.9 mph 5.8 mph 82% 0 in
00:34 75.6 °F 69.6 °F 30 in NO 2.9 mph 3.6 mph 82% 0 in
00:39 75.4 °F 69.6 °F 30 in North 2.6 mph 4.6 mph 82% 0 in
00:44 75.4 °F 69.6 °F 30 in NNE 2 mph 2.9 mph 82.3% 0 in
00:49 75.4 °F 69.8 °F 30 in ESE 1.9 mph 4.7 mph 83% 0 in
00:54 75.4 °F 70 °F 30 in SSE 1.8 mph 4.6 mph 83% 0 in
00:59 75.4 °F 69.8 °F 30 in SSE 2.2 mph 4.6 mph 82.9% 0 in
01:04 75.4 °F 69.4 °F 30 in Sur 2.9 mph 4.6 mph 82% 0 in
01:09 75.4 °F 69.4 °F 30 in Sur 2.7 mph 3.5 mph 82% 0 in
01:14 75.4 °F 69.6 °F 30 in Sur 2.4 mph 2.4 mph 82% 0 in
01:19 75.6 °F 69.6 °F 30 in Sur 2.1 mph 3.6 mph 82% 0 in
01:24 75.6 °F 69.6 °F 30 in SO 1.4 mph 4.6 mph 82% 0 in
01:29 75.4 °F 69.6 °F 30 in OSO 1.9 mph 7.4 mph 82% 0 in
01:34 75.4 °F 69.4 °F 30 in OSO 2.9 mph 6.2 mph 82% 0 in
01:39 75.4 °F 69.4 °F 30 in SO 3 mph 5.4 mph 82% 0 in
01:44 75.4 °F 69.4 °F 30 in SO 3.1 mph 7.4 mph 82% 0 in
01:49 75.4 °F 69.4 °F 30 in SO 3.4 mph 8.1 mph 82% 0 in
01:54 75.4 °F 69.4 °F 30 in SO 4 mph 8.1 mph 82% 0 in
01:59 75.4 °F 69.4 °F 30 in SO 4.1 mph 6.9 mph 82% 0 in
02:04 75.4 °F 69.4 °F 30 in OSO 4.3 mph 6.9 mph 82% 0 in
02:09 75.2 °F 69.3 °F 30 in SO 4.2 mph 6.9 mph 82% 0 in
02:14 75 °F 69.1 °F 30 in SO 4 mph 5.2 mph 82% 0 in
02:19 75 °F 69.1 °F 30 in SSO 3.7 mph 5.9 mph 82% 0 in
02:24 75 °F 69.4 °F 30 in SSO 3.1 mph 5.9 mph 82.9% 0 in
02:29 74.8 °F 69.3 °F 30 in SSO 3.6 mph 8.1 mph 83% 0 in
02:34 74.7 °F 69.3 °F 30 in SSO 4.7 mph 8.1 mph 83% 0 in
02:39 74.7 °F 69.3 °F 30 in SSO 4.7 mph 6.9 mph 83.2% 0 in
02:44 74.5 °F 69.3 °F 30 in SSO 4.7 mph 8.1 mph 84% 0 in
02:49 74.5 °F 69.3 °F 30 in SSO 4.7 mph 6.9 mph 84% 0 in
02:54 74.3 °F 69.1 °F 30 in SO 4.7 mph 7.4 mph 84% 0 in
02:59 74.1 °F 69.1 °F 30 in SO 4.6 mph 7.4 mph 84% 0 in
03:04 74.1 °F 69.3 °F 30 in SO 4.3 mph 6.9 mph 84.7% 0 in
03:09 73.9 °F 69.3 °F 30 in SO 4.3 mph 6.9 mph 85% 0 in
03:14 73.9 °F 69.1 °F 30 in SO 4.3 mph 6.2 mph 85% 0 in
03:19 73.9 °F 68.9 °F 30 in SO 4.3 mph 6.9 mph 84.5% 0 in
03:24 73.8 °F 68.5 °F 30 in SO 4.3 mph 7.4 mph 84% 0 in
03:29 73.8 °F 68.5 °F 30 in SO 4.2 mph 8.1 mph 83.7% 0 in
03:34 73.6 °F 67.8 °F 30 in SO 4 mph 8.1 mph 82.3% 0 in
03:39 73.4 °F 67.3 °F 30 in SO 4.4 mph 9.2 mph 81.1% 0 in
03:44 73.2 °F 66.4 °F 30 in SO 5.2 mph 8.1 mph 79.4% 0 in
03:49 73.2 °F 65.8 °F 30 in SO 5 mph 6.9 mph 77.7% 0 in
03:54 73.2 °F 64.9 °F 30 in SSO 4.7 mph 7.4 mph 75.6% 0 in
03:59 73 °F 63.9 °F 30 in SO 4.7 mph 8.1 mph 73% 0 in
04:04 73 °F 63.1 °F 30 in SSO 4.7 mph 9.2 mph 71.1% 0 in
04:09 73 °F 62.8 °F 30 in SSO 4.8 mph 8.1 mph 70% 0 in
04:14 73 °F 62.2 °F 30 in SSO 5.2 mph 9.7 mph 68.9% 0 in
04:19 72.9 °F 61.5 °F 30 in SSO 5.4 mph 9.2 mph 67.5% 0 in
04:24 72.9 °F 61 °F 30 in SSO 5.9 mph 9.7 mph 66.3% 0 in
04:29 72.9 °F 60.6 °F 30 in SSO 5.9 mph 8.5 mph 65.7% 0 in
04:34 72.7 °F 60.3 °F 30 in SSO 5.9 mph 7.4 mph 65% 0 in
04:39 72.7 °F 60.3 °F 30 in SSO 5.5 mph 8.1 mph 65% 0 in
04:44 72.5 °F 60.1 °F 30 in SSO 4.7 mph 7.4 mph 64.8% 0 in
04:49 72.3 °F 59.5 °F 30 in SSO 4.6 mph 8.7 mph 64% 0 in
04:54 72.3 °F 59.4 °F 30 in SSO 4.3 mph 9.2 mph 63.6% 0 in
04:59 72.3 °F 59 °F 30 in SO 4.6 mph 8.5 mph 63% 0 in
05:04 72.3 °F 59 °F 30 in SO 5.2 mph 9.2 mph 63% 0 in
05:09 72.3 °F 58.8 °F 30 in SO 5.2 mph 7.4 mph 62.7% 0 in
05:14 72.3 °F 58.6 °F 30 in SO 5.2 mph 9.2 mph 62% 0 in
05:19 72.3 °F 58.5 °F 30 in SSO 5.3 mph 8.5 mph 61.7% 0 in
05:24 72.5 °F 58.3 °F 30 in SO 5.4 mph 8.1 mph 61% 0 in
05:29 72.5 °F 58.3 °F 30 in SO 5.3 mph 11.5 mph 61% 0 in
05:34 72.5 °F 58.1 °F 30 in SO 5.2 mph 9.7 mph 60.5% 0 in
05:39 72.3 °F 57.7 °F 30 in SO 5.4 mph 10.4 mph 60% 0 in
05:44 72.3 °F 57.7 °F 30 in SO 5.9 mph 9.7 mph 60% 0 in
05:49 72.3 °F 57.7 °F 30 in SO 5.5 mph 6.9 mph 60% 0 in
05:54 72.3 °F 57.7 °F 30 in SO 4.7 mph 6.9 mph 60% 0 in
05:59 72.1 °F 57.6 °F 30 in SO 4.5 mph 5.9 mph 60% 0 in
06:04 72.3 °F 57.6 °F 30 in SO 4 mph 6.2 mph 60% 0 in
06:09 72.3 °F 57.7 °F 30 in SO 4 mph 6.9 mph 60% 0 in
06:14 72.3 °F 57.2 °F 30 in SO 4 mph 8.1 mph 59% 0 in
06:19 72.1 °F 57 °F 30 in SO 4.2 mph 8.5 mph 59% 0 in
06:24 72.1 °F 57.2 °F 30 in SO 4.7 mph 6.9 mph 59.4% 0 in
06:29 72 °F 57.4 °F 30 in SO 4.6 mph 6.2 mph 59.9% 0 in
06:34 72 °F 57.4 °F 30 in SO 4.3 mph 6.9 mph 60% 0 in
06:39 72 °F 57.4 °F 30 in SO 4.3 mph 7.4 mph 60% 0 in
06:44 72 °F 57.2 °F 30 in SO 4.3 mph 7.4 mph 60% 0 in
06:49 71.8 °F 56.8 °F 30 in SO 4.4 mph 8.7 mph 59.6% 0 in
06:54 71.8 °F 56.7 °F 30 in SO 4.7 mph 9.2 mph 59% 0 in
06:59 72 °F 56.8 °F 30 in SSO 5 mph 9.2 mph 59% 0 in
07:04 72 °F 56.8 °F 30 in SO 5.4 mph 8.1 mph 59% 0 in
07:09 72 °F 56.5 °F 30 in SSO 5.2 mph 8.1 mph 58.3% 0 in
07:14 72 °F 56.5 °F 30 in SSO 4.7 mph 9.2 mph 58% 0 in
07:19 72 °F 56.5 °F 30 in SO 4.8 mph 7.4 mph 58% 0 in
07:24 72 °F 56.1 °F 30.1 in SSO 5.2 mph 9.2 mph 57.5% 0 in
07:29 72 °F 55.9 °F 30.1 in SSO 5.3 mph 10.4 mph 57% 0 in
07:34 72.1 °F 56.1 °F 30.1 in SO 5.4 mph 10.4 mph 57% 0 in
07:39 72.1 °F 56.1 °F 30.1 in SSO 5.6 mph 10.4 mph 57% 0 in
07:44 72.1 °F 55.9 °F 30.1 in SSO 5.9 mph 11.5 mph 56.8% 0 in
07:49 72.1 °F 55.8 °F 30.1 in SSO 6.1 mph 11.8 mph 56.4% 0 in
07:54 72.1 °F 55.9 °F 30.1 in SSO 6.4 mph 11.5 mph 56.5% 0 in
07:59 72 °F 55.9 °F 30.1 in SSO 6.6 mph 10.7 mph 57% 0 in
08:04 72 °F 55.9 °F 30.1 in SSO 6.9 mph 10.7 mph 57% 0 in
08:09 72 °F 55.9 °F 30.1 in SO 6.7 mph 10 mph 57% 0 in
08:14 72 °F 55.9 °F 30.1 in SSO 6.4 mph 10.4 mph 57% 0 in
08:19 72 °F 55.9 °F 30.1 in SSO 6.4 mph 9.7 mph 57% 0 in
08:24 72 °F 55.9 °F 30.1 in SSO 6.4 mph 10.4 mph 57% 0 in
08:29 72 °F 55.9 °F 30.1 in SSO 6.3 mph 10.4 mph 56.9% 0 in
08:34 72.1 °F 55.9 °F 30.1 in SSO 6.2 mph 10.4 mph 56.7% 0 in
08:39 72.1 °F 55.8 °F 30.1 in SSO 6.3 mph 11.5 mph 56.3% 0 in
08:44 72.1 °F 56.1 °F 30.1 in SSO 6.4 mph 10.4 mph 57% 0 in
08:49 72 °F 55.9 °F 30.1 in SO 6.3 mph 11.5 mph 57% 0 in
08:54 72.1 °F 55.9 °F 30.1 in SSO 6.2 mph 12.7 mph 56.6% 0 in
08:59 72.5 °F 55.9 °F 30.1 in SSO 6.6 mph 11.5 mph 56% 0 in
09:04 72.9 °F 56.1 °F 30.1 in SSO 7.4 mph 13.8 mph 56% 0 in
09:09 72.9 °F 56.3 °F 30.1 in SSO 7.6 mph 11.8 mph 56% 0 in
09:14 73 °F 56.3 °F 30.1 in SSO 8.1 mph 13.7 mph 55.9% 0 in
09:19 73 °F 55.9 °F 30.1 in SSO 7.9 mph 13.8 mph 55% 0 in
09:24 73.2 °F 56.1 °F 30.1 in SSO 7.4 mph 10.7 mph 55% 0 in
09:29 73.6 °F 56.3 °F 30.1 in SSO 7.1 mph 11.5 mph 55% 0 in
09:34 73.8 °F 56.3 °F 30.1 in SSO 6.4 mph 13.8 mph 54.5% 0 in
09:39 73.8 °F 56.3 °F 30.1 in SO 6.7 mph 12.7 mph 54.2% 0 in
09:44 73.9 °F 56.3 °F 30.1 in SSO 7.4 mph 11.5 mph 54% 0 in
09:49 74.1 °F 56.3 °F 30.1 in SO 7.3 mph 10.7 mph 53.8% 0 in
09:54 74.5 °F 56.1 °F 30.1 in SO 6.9 mph 12.7 mph 53% 0 in
09:59 74.7 °F 56.5 °F 30.1 in SO 6.6 mph 10.7 mph 53% 0 in
10:04 74.7 °F 56.5 °F 30.1 in SO 6.2 mph 10.4 mph 53% 0 in
10:09 74.8 °F 56.7 °F 30.1 in SO 6 mph 10.4 mph 53% 0 in
10:14 75 °F 56.8 °F 30.1 in SO 5.4 mph 9.2 mph 53% 0 in
10:19 75.6 °F 57 °F 30.1 in SO 5.2 mph 6.9 mph 52.9% 0 in
10:24 75.7 °F 57 °F 30.1 in SO 4.7 mph 8.1 mph 52.1% 0 in
10:29 76.1 °F 56.7 °F 30.1 in OSO 4.6 mph 8.1 mph 51% 0 in
10:34 76.3 °F 56.8 °F 30.1 in SO 4.3 mph 9.2 mph 51% 0 in
10:39 76.5 °F 56.8 °F 30.1 in OSO 4.2 mph 6.9 mph 50.8% 0 in
10:44 76.6 °F 56.3 °F 30.1 in OSO 4 mph 10.7 mph 49.6% 0 in
10:49 76.6 °F 56.5 °F 30.1 in SO 4.5 mph 9.7 mph 49.6% 0 in
10:54 77 °F 55.9 °F 30.1 in OSO 5.4 mph 10.4 mph 48.2% 0 in
10:59 77.4 °F 55.8 °F 30.1 in OSO 5.6 mph 11.4 mph 47.5% 0 in
11:04 77.5 °F 55.8 °F 30.1 in OSO 5.9 mph 11.5 mph 47% 0 in
11:09 77.7 °F 55.8 °F 30.1 in OSO 6.2 mph 11.5 mph 46.6% 0 in
11:14 77.9 °F 55.2 °F 30.1 in OSO 6.9 mph 15 mph 45.6% 0 in
11:19 78.1 °F 55.4 °F 30.1 in OSO 6.7 mph 11.5 mph 45.6% 0 in
11:24 78.4 °F 55.6 °F 30.1 in OSO 6.4 mph 14.7 mph 45.4% 0 in
11:29 78.6 °F 55.4 °F 30.1 in OSO 6.2 mph 15 mph 44.7% 0 in
11:34 79 °F 55.4 °F 30.1 in OSO 5.9 mph 10.4 mph 44.4% 0 in
11:39 79 °F 55.2 °F 30.1 in OSO 6 mph 10.4 mph 44.1% 0 in
11:44 79.2 °F 55.4 °F 30.1 in OSO 6.2 mph 10.4 mph 44% 0 in
11:49 79.2 °F 55 °F 30.1 in SO 6.4 mph 13.8 mph 43.5% 0 in
11:54 79.3 °F 54.9 °F 30.1 in OSO 6.9 mph 10.4 mph 43% 0 in
11:59 79.5 °F 55.4 °F 30.1 in SO 6.6 mph 9.2 mph 43.7% 0 in
12:04 79.9 °F 55.2 °F 30.1 in SSO 6.2 mph 9.2 mph 42.8% 0 in
12:09 79.9 °F 55.2 °F 30.1 in OSO 6 mph 7.4 mph 42.7% 0 in
12:14 80.2 °F 55.4 °F 30.1 in OSO 5.4 mph 8.1 mph 42.6% 0 in
12:19 80.8 °F 55.4 °F 30.1 in OSO 4.7 mph 10.7 mph 41.7% 0 in
12:24 81.1 °F 55 °F 30.1 in Oeste 3.1 mph 8.1 mph 40.8% 0 in
12:29 81.1 °F 54.7 °F 30.1 in OSO 3.4 mph 8.1 mph 40.2% 0 in
12:34 81.5 °F 54.9 °F 30.1 in OSO 4 mph 8.5 mph 40% 0 in
12:39 81.7 °F 54.3 °F 30.1 in OSO 4.4 mph 10 mph 39.1% 0 in
12:44 81.9 °F 54.5 °F 30.1 in Oeste 5.2 mph 11.8 mph 38.9% 0 in
12:49 82 °F 54 °F 30.1 in SO 5 mph 11.5 mph 38% 0 in
12:54 82.4 °F 53.6 °F 30.1 in OSO 4.7 mph 11.5 mph 37% 0 in
12:59 82.8 °F 53.4 °F 30.1 in OSO 5 mph 12.3 mph 36.5% 0 in
13:04 82.6 °F 54 °F 30.1 in OSO 5.4 mph 12.7 mph 37.3% 0 in
13:09 82.8 °F 53.4 °F 30.1 in OSO 5.7 mph 10.4 mph 36.4% 0 in
13:14 82.8 °F 53.1 °F 30.1 in Oeste 6.4 mph 9.2 mph 36% 0 in
13:19 82.8 °F 53.1 °F 30.1 in OSO 6.3 mph 10.7 mph 36% 0 in
13:24 82.9 °F 53.2 °F 30.1 in OSO 6.2 mph 13 mph 36% 0 in
13:29 82.9 °F 52.7 °F 30.1 in OSO 6.4 mph 11.5 mph 35.3% 0 in
13:34 82.9 °F 53.2 °F 30.1 in SO 6.9 mph 10.2 mph 36% 0 in
13:39 83.5 °F 52.9 °F 30.1 in OSO 6.4 mph 13.7 mph 35% 0 in
13:44 83.7 °F 52.9 °F 30.1 in SO 5.4 mph 13.8 mph 34.7% 0 in
13:49 83.7 °F 52.7 °F 30.1 in SO 5.5 mph 10.4 mph 34.5% 0 in
13:54 83.8 °F 52.9 °F 30.1 in SO 5.9 mph 11.5 mph 34.6% 0 in
13:59 84.2 °F 53.2 °F 30.1 in SO 5.7 mph 10.7 mph 34.7% 0 in
14:04 84.4 °F 52.9 °F 30.1 in SO 5.4 mph 11.8 mph 34.1% 0 in
14:09 84.4 °F 53.1 °F 30.1 in SO 5.7 mph 13.8 mph 34.2% 0 in
14:14 84 °F 52.7 °F 30.1 in OSO 6.2 mph 10.4 mph 34.1% 0 in
14:19 84.4 °F 53.1 °F 30.1 in SO 6.2 mph 12.7 mph 34.3% 0 in
14:24 84.2 °F 52.9 °F 30.1 in SO 6.2 mph 11.5 mph 34% 0 in
14:29 84.2 °F 53.4 °F 30.1 in SO 6.1 mph 13.8 mph 34.8% 0 in
14:34 84 °F 53.2 °F 30.1 in OSO 5.9 mph 10.4 mph 34.7% 0 in
14:39 84 °F 53.2 °F 30.1 in Oeste 6.1 mph 9.7 mph 34.7% 0 in
14:44 84 °F 52.9 °F 30.1 in OSO 6.4 mph 6.2 mph 34.3% 0 in
14:49 84.2 °F 53.1 °F 30.1 in NO 5.2 mph 6.9 mph 34.4% 0 in
14:54 84.6 °F 54 °F 30.1 in Oeste 2.9 mph 10.7 mph 35% 0 in
14:59 84.7 °F 54.1 °F 30.1 in OSO 4 mph 15 mph 35% 0 in
15:04 84.7 °F 54.1 °F 30.1 in SO 6.2 mph 11.5 mph 35% 0 in
15:09 84.7 °F 54.1 °F 30.1 in OSO 6.1 mph 8.1 mph 35% 0 in
15:14 84.9 °F 54.1 °F 30.1 in OSO 5.9 mph 7.4 mph 35% 0 in
15:19 85.1 °F 54 °F 30.1 in SO 5.3 mph 10.4 mph 34.4% 0 in
15:24 85.1 °F 53.6 °F 30.1 in Oeste 4 mph 8.1 mph 34% 0 in
15:29 85.3 °F 53.8 °F 30.1 in SSO 4.1 mph 8.5 mph 34.2% 0 in
15:34 85.3 °F 54.3 °F 30.1 in SO 4.3 mph 8.5 mph 34.7% 0 in
15:39 85.5 °F 54.5 °F 30.1 in Sur 4.2 mph 6.9 mph 34.6% 0 in
15:44 85.8 °F 54.5 °F 30.1 in NO 4 mph 9.2 mph 34.5% 0 in
15:49 85.8 °F 54.3 °F 30.1 in ONO 4 mph 5.4 mph 34% 0 in
15:54 85.8 °F 54.3 °F 30.1 in ONO 4 mph 9.2 mph 34% 0 in
15:59 85.6 °F 54 °F 30 in ONO 4.1 mph 6.2 mph 34% 0 in
16:04 85.6 °F 54.1 °F 30 in NNO 4.3 mph 4.6 mph 34% 0 in
16:09 86 °F 54.7 °F 30 in NNE 3.6 mph 5.2 mph 34.3% 0 in
16:14 86.4 °F 54.7 °F 30 in ESE 2 mph 3.5 mph 34% 0 in
16:19 86.5 °F 54.5 °F 30 in OSO 2.3 mph 10.7 mph 33.4% 0 in
16:24 86.5 °F 54.1 °F 30 in ONO 2.9 mph 9.2 mph 33.1% 0 in
16:29 86.4 °F 54.5 °F 30 in NO 3.4 mph 5.8 mph 33.9% 0 in
16:34 86.4 °F 53.8 °F 30 in Oeste 4.3 mph 11.5 mph 33% 0 in
16:39 86 °F 53.8 °F 30 in Oeste 4.3 mph 7.4 mph 33.1% 0 in
16:44 85.8 °F 54 °F 30 in Oeste 4.7 mph 8.1 mph 33.7% 0 in
16:49 85.6 °F 54 °F 30 in OSO 4.7 mph 5.9 mph 34% 0 in
16:54 85.6 °F 54.1 °F 30 in SSO 4.7 mph 5.9 mph 34% 0 in
16:59 85.8 °F 54.1 °F 30 in OSO 4.7 mph 6.2 mph 34% 0 in
17:04 85.8 °F 54.1 °F 30 in SSO 4.2 mph 6.2 mph 34% 0 in
17:09 85.6 °F 54.1 °F 30 in SSO 4 mph 8.1 mph 34.1% 0 in
17:14 85.6 °F 54.3 °F 30 in SSO 4 mph 8.1 mph 34.5% 0 in
17:19 85.6 °F 54.5 °F 30 in Sur 4.4 mph 10.7 mph 34.7% 0 in
17:24 85.5 °F 54.3 °F 30 in Sur 5.2 mph 10.4 mph 34.4% 0 in
17:29 85.5 °F 54.7 °F 30 in Sur 5.6 mph 10.2 mph 35% 0 in
17:34 85.5 °F 54.1 °F 30 in Sur 6.4 mph 10.4 mph 34.4% 0 in
17:39 85.6 °F 54.3 °F 30 in Sur 6.4 mph 10.4 mph 34.3% 0 in
17:44 86 °F 54.3 °F 30 in Sur 6.4 mph 13.8 mph 34% 0 in
17:49 86.2 °F 54.7 °F 30 in Sur 6.2 mph 8.1 mph 34.2% 0 in
17:54 86.4 °F 54.7 °F 30 in Sur 5.9 mph 10.4 mph 34% 0 in
17:59 86.4 °F 54.7 °F 30 in Sur 5.9 mph 10.4 mph 34% 0 in
18:04 86.5 °F 54.9 °F 30 in Sur 5.9 mph 8.5 mph 34% 0 in
18:09 86.5 °F 54.9 °F 30 in SSE 5.9 mph 9.2 mph 34% 0 in
18:14 86.5 °F 54.9 °F 30 in SSE 5.9 mph 8.1 mph 34.2% 0 in
18:19 86.5 °F 55 °F 30 in SSE 5.7 mph 9.7 mph 34.3% 0 in
18:24 86.4 °F 55.9 °F 30 in Sur 5.4 mph 10.7 mph 35.6% 0 in
18:29 86 °F 56.7 °F 30 in SE 5.7 mph 12.5 mph 36.9% 0 in
18:34 85.5 °F 57.2 °F 30 in ESE 6.2 mph 13.8 mph 38.2% 0 in
18:39 85.1 °F 57.4 °F 30 in ESE 6.6 mph 12.7 mph 39% 0 in
18:44 84.7 °F 57.7 °F 30 in SE 7.4 mph 13.5 mph 40% 0 in
18:49 84.4 °F 57.7 °F 30 in SE 7.5 mph 13.8 mph 40.4% 0 in
18:54 84 °F 57.7 °F 30 in SE 7.6 mph 10.4 mph 41% 0 in
18:59 84 °F 57.7 °F 30 in SE 7.1 mph 9.2 mph 41% 0 in
19:04 84 °F 57.9 °F 30 in SE 6.2 mph 8.1 mph 41% 0 in
19:09 84.4 °F 58.1 °F 30 in SE 5.9 mph 10.4 mph 41% 0 in
19:14 84 °F 58.5 °F 30 in ESE 5.2 mph 11.8 mph 42% 0 in
19:19 83.7 °F 58.8 °F 30 in ESE 5.5 mph 8.1 mph 42.9% 0 in
19:24 83.5 °F 58.6 °F 30 in ESE 6.2 mph 8.1 mph 43.1% 0 in
19:29 83.3 °F 59 °F 30 in ESE 5.6 mph 6.9 mph 44% 0 in
19:34 82.9 °F 58.8 °F 30 in SE 4.3 mph 8.5 mph 44% 0 in
19:39 82.9 °F 58.8 °F 30 in ESE 4.6 mph 9.7 mph 44.1% 0 in
19:44 82.6 °F 58.5 °F 30 in SE 5.2 mph 10.4 mph 44% 0 in
19:49 82.2 °F 58.1 °F 30 in SE 5.5 mph 10.7 mph 44% 0 in
19:54 82 °F 57.9 °F 30 in SE 6.2 mph 9.2 mph 44% 0 in
19:59 81.7 °F 57.7 °F 30 in SE 6.2 mph 10.7 mph 44% 0 in
20:04 81.3 °F 57.4 °F 30 in SE 6.2 mph 13 mph 44% 0 in
20:09 81.1 °F 57.4 °F 30 in SE 6.3 mph 12.7 mph 44.3% 0 in
20:14 81.1 °F 57.7 °F 30 in SE 6.4 mph 10.4 mph 45% 0 in
20:19 81 °F 57.6 °F 30 in SSE 6.2 mph 8.1 mph 45% 0 in
20:24 80.8 °F 57.6 °F 30 in SSE 5.9 mph 9.2 mph 45% 0 in
20:29 80.6 °F 57.6 °F 30 in SE 5.4 mph 8.1 mph 45.3% 0 in
20:34 80.4 °F 57.7 °F 30 in SE 4.3 mph 2.4 mph 46% 0 in
20:39 80.4 °F 57.7 °F 30.1 in NE 3.4 mph 4.7 mph 46% 0 in
20:44 80.2 °F 57.6 °F 30.1 in North 1.4 mph 4.7 mph 46.1% 0 in
20:49 79.9 °F 57.9 °F 30.1 in NNE 1.9 mph 4.6 mph 47% 0 in
20:54 79.5 °F 57.6 °F 30.1 in NNE 3.1 mph 5.2 mph 47% 0 in
20:59 79.3 °F 57.4 °F 30.1 in NNE 3.1 mph 7.4 mph 47.1% 0 in
21:04 79.3 °F 57.9 °F 30.1 in NNE 3.1 mph 6.9 mph 48% 0 in
21:09 79.2 °F 58.1 °F 30.1 in NNO 3.3 mph 4.6 mph 48.6% 0 in
21:14 78.8 °F 58.3 °F 30.1 in NNO 3.6 mph 5.4 mph 49.6% 0 in
21:19 78.4 °F 58.8 °F 30.1 in NE 3.4 mph 7.4 mph 51% 0 in
21:24 78.1 °F 59 °F 30.1 in NE 3.1 mph 5.8 mph 52% 0 in
21:29 77.7 °F 59.2 °F 30.1 in NNE 3.1 mph 5.8 mph 52.8% 0 in
21:34 77.5 °F 59.4 °F 30.1 in NNE 3.1 mph 4.7 mph 53.6% 0 in
21:39 77.4 °F 59.4 °F 30.1 in NNE 2.9 mph 3.6 mph 54% 0 in
21:44 77.4 °F 59.9 °F 30.1 in NO 2.4 mph 5.9 mph 55% 0 in
21:49 77.2 °F 59.7 °F 30.1 in NO 2.5 mph 5.8 mph 55.1% 0 in
21:54 76.8 °F 60.1 °F 30.1 in NO 2.9 mph 6.9 mph 56.4% 0 in
21:59 76.5 °F 60.6 °F 30.1 in NO 2.9 mph 5.9 mph 58% 0 in
22:04 76.3 °F 60.8 °F 30.1 in NO 2.9 mph 6.2 mph 59% 0 in
22:09 75.9 °F 61 °F 30.1 in NO 3 mph 5.8 mph 60% 0 in
22:14 75.7 °F 61.2 °F 30.1 in NO 3.1 mph 5.8 mph 60.5% 0 in
22:19 75.6 °F 61.3 °F 30.1 in NO 3.2 mph 5.9 mph 61.5% 0 in
22:24 75.6 °F 61.5 °F 30.1 in NO 3.6 mph 5.8 mph 62% 0 in
22:29 75.4 °F 61.7 °F 30.1 in NO 3.4 mph 4.7 mph 62.6% 0 in
22:34 75 °F 61.5 °F 30.1 in NO 3.1 mph 4.6 mph 63% 0 in
22:39 74.8 °F 61.5 °F 30.1 in NO 2.9 mph 4.6 mph 63% 0 in
22:44 74.8 °F 61.7 °F 30.1 in NNO 2.4 mph 4.6 mph 63.7% 0 in
22:49 74.7 °F 61.7 °F 30.1 in NNE 2.3 mph 4 mph 64% 0 in
22:54 74.7 °F 61.9 °F 30.1 in North 2 mph 4.6 mph 64.6% 0 in
22:59 74.7 °F 62.1 °F 30.1 in NNO 2.2 mph 4.3 mph 65% 0 in
23:04 74.5 °F 61.9 °F 30.1 in North 2.4 mph 4.6 mph 65% 0 in
23:09 74.5 °F 61.9 °F 30.1 in North 2.3 mph 3.6 mph 65.1% 0 in
23:14 74.5 °F 62.2 °F 30.1 in North 2 mph 5.2 mph 66% 0 in
23:19 74.1 °F 62.1 °F 30.1 in NNE 2.1 mph 4.6 mph 66% 0 in
23:24 74.1 °F 62.1 °F 30.1 in NNE 2.4 mph 3.5 mph 66% 0 in
23:29 74.1 °F 62.1 °F 30.1 in NNO 2.3 mph 4.7 mph 66% 0 in
23:34 74.1 °F 62.4 °F 30.1 in NO 2 mph 4.6 mph 66.8% 0 in
23:39 73.9 °F 62.2 °F 30.1 in NO 2 mph 4.6 mph 67% 0 in
23:44 73.8 °F 62.4 °F 30.1 in NO 2 mph 3.5 mph 67.9% 0 in
23:49 73.8 °F 62.4 °F 30.1 in NO 1.9 mph 3.6 mph 68% 0 in
23:54 73.6 °F 62.8 °F 30.1 in NNE 1.8 mph 4.6 mph 69% 0 in
23:59 73.4 °F 62.8 °F 30.1 in NNE 2.2 mph 4.7 mph 69.7% 0 in
Murcia-Puente Tocinos, España
Compliments of Weather Underground - 3 mb

La estación de MeteoMurcia.com, publica sus datos en los siguientes proyectos:

Weather Underground PWS IMURCIAP2 Meteoclimatic www.awekas.at

W3Counter
Web Analytics